createdAt,value
2022-09-14T00:01:27.173Z,14.10
2022-09-14T00:04:06.759Z,14.20
2022-09-14T00:06:34.455Z,14.20
2022-09-14T00:09:02.642Z,14.20
2022-09-14T00:11:32.346Z,14.20
2022-09-14T00:14:01.285Z,14.30
2022-09-14T00:16:33.969Z,14.30
2022-09-14T00:19:08.077Z,14.30
2022-09-14T00:21:39.396Z,14.30
2022-09-14T00:24:07.508Z,14.40
2022-09-14T00:26:35.219Z,14.40
2022-09-14T00:29:06.057Z,14.40
2022-09-14T00:31:36.817Z,14.40
2022-09-14T00:34:05.902Z,14.40
2022-09-14T00:36:37.479Z,14.30
2022-09-14T00:39:04.682Z,14.30
2022-09-14T00:41:35.090Z,14.30
2022-09-14T00:44:29.826Z,14.30
2022-09-14T00:47:02.635Z,14.30
2022-09-14T00:49:40.104Z,14.30
2022-09-14T00:52:15.730Z,14.20
2022-09-14T00:55:04.682Z,14.20
2022-09-14T00:57:37.706Z,14.10
2022-09-14T01:00:10.689Z,14.10
2022-09-14T01:02:39.581Z,14.20
2022-09-14T01:05:08.790Z,14.20
2022-09-14T01:08:01.100Z,14.20
2022-09-14T01:10:41.114Z,14.20
2022-09-14T01:13:37.817Z,14.20
2022-09-14T01:16:30.545Z,14.20
2022-09-14T01:19:00.579Z,14.30
2022-09-14T01:21:33.997Z,14.30
2022-09-14T01:24:33.760Z,14.20
2022-09-14T01:27:22.348Z,14.20
2022-09-14T01:29:55.293Z,14.20
2022-09-14T01:32:27.790Z,14.20
2022-09-14T01:35:02.720Z,14.20
2022-09-14T01:37:35.331Z,14.20
2022-09-14T01:40:14.877Z,14.10
2022-09-14T01:42:45.348Z,14.10
2022-09-14T01:45:17.407Z,14.10
2022-09-14T01:47:54.740Z,14.00
2022-09-14T01:50:43.867Z,14.00
2022-09-14T01:53:20.315Z,14.00
2022-09-14T01:56:20.418Z,13.90
2022-09-14T01:59:00.315Z,13.90
2022-09-14T02:01:44.686Z,13.80
2022-09-14T02:04:18.136Z,13.80
2022-09-14T02:06:48.081Z,13.80
2022-09-14T02:09:19.989Z,13.80
2022-09-14T02:11:47.681Z,13.80
2022-09-14T02:14:14.909Z,13.80
2022-09-14T02:16:45.224Z,13.70
2022-09-14T02:19:14.049Z,13.70
2022-09-14T02:21:41.146Z,13.70
2022-09-14T02:24:10.932Z,13.70
2022-09-14T02:26:39.368Z,13.60
2022-09-14T02:29:06.547Z,13.60
2022-09-14T02:32:06.534Z,13.60
2022-09-14T02:34:39.737Z,13.60
2022-09-14T02:37:21.358Z,13.50
2022-09-14T02:40:00.516Z,13.50
2022-09-14T02:42:55.246Z,13.50
2022-09-14T02:45:42.511Z,13.50
2022-09-14T02:48:13.986Z,13.50
2022-09-14T02:50:50.433Z,13.50
2022-09-14T02:53:51.110Z,13.50
2022-09-14T02:56:20.206Z,13.50
2022-09-14T02:58:47.354Z,13.50
2022-09-14T03:01:17.750Z,13.40
2022-09-14T03:03:45.100Z,13.40
2022-09-14T03:06:12.704Z,13.50
2022-09-14T03:08:40.588Z,13.50
2022-09-14T03:11:08.088Z,13.50
2022-09-14T03:13:36.381Z,13.60
2022-09-14T03:16:13.142Z,13.60
2022-09-14T03:18:40.631Z,13.60
2022-09-14T03:21:14.051Z,13.60
2022-09-14T03:23:50.525Z,13.50
2022-09-14T03:26:23.515Z,13.50
2022-09-14T03:28:52.526Z,13.50
2022-09-14T03:31:20.665Z,13.50
2022-09-14T03:33:54.106Z,13.50
2022-09-14T03:36:21.690Z,13.60
2022-09-14T03:38:52.297Z,13.60
2022-09-14T03:41:20.716Z,13.60
2022-09-14T03:43:48.167Z,13.60
2022-09-14T03:46:23.018Z,13.60
2022-09-14T03:48:50.715Z,13.50
2022-09-14T03:51:18.108Z,13.50
2022-09-14T03:53:46.182Z,13.50
2022-09-14T03:56:19.484Z,13.50
2022-09-14T03:58:48.346Z,13.50
2022-09-14T04:01:18.587Z,13.40
2022-09-14T04:03:46.506Z,13.40
2022-09-14T04:06:15.217Z,13.40
2022-09-14T04:08:43.974Z,13.40
2022-09-14T04:11:17.926Z,13.40
2022-09-14T04:13:45.860Z,13.40
2022-09-14T04:16:13.873Z,13.40
2022-09-14T04:18:41.111Z,13.40
2022-09-14T04:21:13.688Z,13.40
2022-09-14T04:24:02.952Z,13.40
2022-09-14T04:26:30.106Z,13.40
2022-09-14T04:28:57.816Z,13.40
2022-09-14T04:31:25.822Z,13.40
2022-09-14T04:33:56.463Z,13.40
2022-09-14T04:36:31.300Z,13.40
2022-09-14T04:39:03.021Z,13.40
2022-09-14T04:41:32.055Z,13.40
2022-09-14T04:44:00.635Z,13.40
2022-09-14T04:46:35.951Z,13.40
2022-09-14T04:49:03.382Z,13.40
2022-09-14T04:51:32.663Z,13.40
2022-09-14T04:54:01.133Z,13.40
2022-09-14T04:56:31.073Z,13.40
2022-09-14T04:58:59.997Z,13.40
2022-09-14T05:01:30.211Z,13.40
2022-09-14T05:03:58.830Z,13.30
2022-09-14T05:06:28.891Z,13.30
2022-09-14T05:08:56.719Z,13.30
2022-09-14T05:11:25.604Z,13.30
2022-09-14T05:13:53.173Z,13.20
2022-09-14T05:16:23.742Z,13.20
2022-09-14T05:18:54.465Z,13.20
2022-09-14T05:21:23.001Z,13.10
2022-09-14T05:23:55.134Z,13.10
2022-09-14T05:26:23.538Z,13.10
2022-09-14T05:28:56.022Z,13.10
2022-09-14T05:31:24.264Z,13.10
2022-09-14T05:33:52.782Z,13.10
2022-09-14T05:36:20.107Z,13.10
2022-09-14T05:38:47.386Z,13.10
2022-09-14T05:41:15.842Z,13.10
2022-09-14T05:43:43.392Z,13.10
2022-09-14T05:46:13.424Z,13.10
2022-09-14T05:48:41.338Z,13.00
2022-09-14T05:51:12.078Z,13.00
2022-09-14T05:53:41.219Z,13.00
2022-09-14T05:56:13.910Z,12.90
2022-09-14T05:58:42.732Z,12.90
2022-09-14T06:01:16.366Z,12.90
2022-09-14T06:03:44.816Z,12.90
2022-09-14T06:06:14.245Z,12.90
2022-09-14T06:08:42.593Z,12.80
2022-09-14T06:11:13.233Z,12.80
2022-09-14T06:13:40.440Z,12.80
2022-09-14T06:16:13.627Z,12.80
2022-09-14T06:18:41.669Z,12.90
2022-09-14T06:21:10.985Z,12.90
2022-09-14T06:23:38.656Z,12.80
2022-09-14T06:26:06.208Z,12.80
2022-09-14T06:28:35.068Z,12.80
2022-09-14T06:31:07.826Z,12.80
2022-09-14T06:33:35.836Z,12.90
2022-09-14T06:36:09.308Z,12.90
2022-09-14T06:38:36.544Z,13.00
2022-09-14T06:41:06.971Z,13.00
2022-09-14T06:43:36.522Z,13.10
2022-09-14T06:46:24.818Z,13.10
2022-09-14T06:49:13.127Z,13.10
2022-09-14T06:51:43.411Z,13.10
2022-09-14T06:54:12.895Z,13.10
2022-09-14T06:56:40.888Z,13.00
2022-09-14T06:59:10.533Z,13.00
2022-09-14T07:01:38.567Z,13.00
2022-09-14T07:04:06.451Z,12.90
2022-09-14T07:06:40.114Z,12.90
2022-09-14T07:09:07.403Z,13.00
2022-09-14T07:11:35.001Z,12.90
2022-09-14T07:14:02.413Z,13.00
2022-09-14T07:16:31.304Z,13.00
2022-09-14T07:19:03.481Z,13.00
2022-09-14T07:21:32.539Z,13.00
2022-09-14T07:24:00.203Z,13.10
2022-09-14T07:26:30.007Z,13.10
2022-09-14T07:29:01.941Z,13.10
2022-09-14T07:31:38.639Z,13.20
2022-09-14T07:34:06.409Z,13.20
2022-09-14T07:36:35.529Z,13.30
2022-09-14T07:39:05.900Z,13.30
2022-09-14T07:41:34.633Z,13.40
2022-09-14T07:44:03.805Z,13.50
2022-09-14T07:46:39.266Z,13.50
2022-09-14T07:49:08.134Z,13.60
2022-09-14T07:51:37.181Z,13.60
2022-09-14T07:54:06.124Z,13.60
2022-09-14T07:56:35.176Z,13.50
2022-09-14T07:59:30.738Z,13.50
2022-09-14T08:01:52.740Z,13.50
2022-09-14T08:04:20.983Z,13.50
2022-09-14T08:06:48.342Z,13.50
2022-09-14T08:09:15.528Z,13.50
2022-09-14T08:11:42.805Z,13.60
2022-09-14T08:14:12.467Z,13.60
2022-09-14T08:16:40.975Z,13.60
2022-09-14T08:19:17.245Z,13.60
2022-09-14T08:21:47.258Z,13.60
2022-09-14T08:24:17.874Z,13.60
2022-09-14T08:26:46.395Z,13.70
2022-09-14T08:29:14.831Z,13.70
2022-09-14T08:31:44.341Z,13.70
2022-09-14T08:34:12.191Z,13.70
2022-09-14T08:36:41.453Z,13.70
2022-09-14T08:39:10.809Z,13.70
2022-09-14T08:41:44.079Z,13.80
2022-09-14T08:44:20.409Z,13.90
2022-09-14T08:46:53.501Z,13.90
2022-09-14T08:49:58.891Z,13.90
2022-09-14T08:52:31.437Z,14.00
2022-09-14T08:55:02.095Z,14.10
2022-09-14T08:57:33.668Z,14.20
2022-09-14T09:00:13.268Z,14.20
2022-09-14T09:02:56.727Z,14.30
2022-09-14T09:05:28.413Z,14.40
2022-09-14T09:08:17.960Z,14.40
2022-09-14T09:10:47.528Z,14.40
2022-09-14T09:13:21.642Z,14.40
2022-09-14T09:15:55.211Z,14.40
2022-09-14T09:18:45.027Z,14.30
2022-09-14T09:21:25.748Z,14.20
2022-09-14T09:23:56.205Z,14.10
2022-09-14T09:26:28.186Z,14.10
2022-09-14T09:28:59.076Z,14.10
2022-09-14T09:31:43.804Z,14.10
2022-09-14T09:34:30.342Z,14.00
2022-09-14T09:37:16.065Z,14.00
2022-09-14T09:39:44.028Z,13.90
2022-09-14T09:42:16.447Z,13.80
2022-09-14T09:45:04.022Z,13.90
2022-09-14T09:47:38.963Z,13.90
2022-09-14T09:50:26.586Z,13.90
2022-09-14T09:53:03.205Z,13.90
2022-09-14T09:55:39.230Z,13.90
2022-09-14T09:58:36.017Z,13.90
2022-09-14T10:01:17.961Z,13.90
2022-09-14T10:03:59.421Z,14.00
2022-09-14T10:06:27.110Z,14.00
2022-09-14T10:08:57.552Z,14.20
2022-09-14T10:11:36.997Z,14.30
2022-09-14T10:14:06.082Z,14.30
2022-09-14T10:16:39.025Z,14.40
2022-09-14T10:19:15.210Z,14.30
2022-09-14T10:25:23.604Z,14.30
2022-09-14T10:28:00.030Z,14.40
2022-09-14T10:30:43.982Z,14.50
2022-09-14T10:33:15.823Z,14.60
2022-09-14T10:36:09.192Z,14.80
2022-09-14T10:38:55.228Z,14.90
2022-09-14T10:41:40.669Z,14.90
2022-09-14T10:44:11.785Z,14.90
2022-09-14T10:47:00.296Z,15.00
2022-09-14T10:49:48.102Z,15.10
2022-09-14T10:52:31.825Z,15.30
2022-09-14T10:55:32.220Z,15.30
2022-09-14T10:58:14.464Z,15.20
2022-09-14T11:01:13.867Z,15.30
2022-09-14T11:03:49.967Z,15.30
2022-09-14T11:07:01.490Z,15.30
2022-09-14T11:09:37.953Z,15.30
2022-09-14T11:12:17.493Z,15.20
2022-09-14T11:14:59.938Z,15.10
2022-09-14T11:18:05.548Z,15.10
2022-09-14T11:21:05.878Z,15.10
2022-09-14T11:23:51.667Z,15.10
2022-09-14T11:26:31.730Z,15.10
2022-09-14T11:29:03.557Z,15.10
2022-09-14T11:32:22.433Z,15.10
2022-09-14T11:34:54.858Z,15.10
2022-09-14T11:37:30.328Z,15.00
2022-09-14T11:40:08.147Z,14.90
2022-09-14T11:43:08.198Z,14.80
2022-09-14T11:45:42.678Z,14.80
2022-09-14T11:48:41.887Z,14.80
2022-09-14T11:51:34.573Z,14.90
2022-09-14T11:54:02.076Z,15.00
2022-09-14T11:56:32.572Z,15.00
2022-09-14T11:59:04.374Z,14.90
2022-09-14T12:01:38.855Z,15.00
2022-09-14T12:04:19.759Z,15.10
2022-09-14T12:06:50.921Z,15.30
2022-09-14T12:09:21.004Z,15.40
2022-09-14T12:11:58.609Z,15.50
2022-09-14T12:14:28.890Z,15.50
2022-09-14T12:17:37.891Z,15.60
2022-09-14T12:20:27.648Z,15.50
2022-09-14T12:23:25.936Z,15.50
2022-09-14T12:26:18.972Z,15.50
2022-09-14T12:28:50.590Z,15.50
2022-09-14T12:31:32.997Z,15.50
2022-09-14T12:34:21.851Z,15.50
2022-09-14T12:36:48.951Z,15.70
2022-09-14T12:39:26.576Z,15.80
2022-09-14T12:41:53.763Z,15.90
2022-09-14T12:44:39.413Z,16.00
2022-09-14T12:47:30.378Z,16.20
2022-09-14T12:50:05.249Z,16.30
2022-09-14T12:52:59.271Z,16.30
2022-09-14T12:56:02.394Z,16.10
2022-09-14T12:58:42.861Z,16.10
2022-09-14T13:01:39.565Z,16.20
2022-09-14T13:04:14.380Z,16.20
2022-09-14T13:06:45.239Z,16.20
2022-09-14T13:09:25.287Z,16.40
2022-09-14T13:12:03.234Z,16.50
2022-09-14T13:14:43.909Z,16.60
2022-09-14T13:17:14.176Z,16.50
2022-09-14T13:19:41.669Z,16.30
2022-09-14T13:22:24.363Z,16.10
2022-09-14T13:24:52.543Z,16.00
2022-09-14T13:27:24.428Z,15.80
2022-09-14T13:30:11.604Z,15.70
2022-09-14T13:32:45.746Z,15.60
2022-09-14T13:35:33.583Z,15.60
2022-09-14T13:38:10.164Z,15.60
2022-09-14T13:40:37.859Z,15.60
2022-09-14T13:43:05.556Z,15.60
2022-09-14T13:45:33.783Z,15.60
2022-09-14T13:48:01.671Z,15.60
2022-09-14T13:50:29.051Z,15.60
2022-09-14T13:53:04.481Z,15.60
2022-09-14T13:55:33.483Z,15.60
2022-09-14T13:58:09.956Z,15.50
2022-09-14T14:01:00.529Z,15.50
2022-09-14T14:03:29.987Z,15.50
2022-09-14T14:05:57.872Z,15.50
2022-09-14T14:08:37.880Z,15.40
2022-09-14T14:11:07.533Z,15.40
2022-09-14T14:13:37.552Z,15.30
2022-09-14T14:16:16.646Z,15.30
2022-09-14T14:18:53.922Z,15.30
2022-09-14T14:21:27.620Z,15.30
2022-09-14T14:24:27.990Z,15.30
2022-09-14T14:26:57.582Z,15.20
2022-09-14T14:29:26.086Z,15.10
2022-09-14T14:31:56.159Z,15.10
2022-09-14T14:34:27.200Z,15.00
2022-09-14T14:36:55.605Z,15.00
2022-09-14T14:39:24.860Z,15.00
2022-09-14T14:41:52.903Z,15.00
2022-09-14T14:44:28.268Z,15.00
2022-09-14T14:46:56.481Z,14.90
2022-09-14T14:49:23.925Z,14.90
2022-09-14T14:51:51.433Z,14.90
2022-09-14T14:54:20.098Z,14.90
2022-09-14T14:56:49.443Z,14.90
2022-09-14T14:59:19.952Z,14.90
2022-09-14T15:01:48.411Z,15.00
2022-09-14T15:04:15.845Z,15.00
2022-09-14T15:06:43.094Z,15.00
2022-09-14T15:09:21.503Z,15.10
2022-09-14T15:11:50.513Z,15.20
2022-09-14T15:14:26.586Z,15.30
2022-09-14T15:16:58.223Z,15.30
2022-09-14T15:19:26.625Z,15.40
2022-09-14T15:21:58.611Z,15.50
2022-09-14T15:24:28.407Z,15.60
2022-09-14T15:26:55.825Z,15.70
2022-09-14T15:29:23.513Z,15.80
2022-09-14T15:31:50.809Z,15.70
2022-09-14T15:34:18.301Z,15.70
2022-09-14T15:36:51.006Z,15.70
2022-09-14T15:39:25.161Z,15.70
2022-09-14T15:41:53.264Z,15.70
2022-09-14T15:44:21.040Z,15.50
2022-09-14T15:46:48.927Z,15.40
2022-09-14T15:49:18.417Z,15.20
2022-09-14T15:51:50.651Z,15.10
2022-09-14T15:54:19.834Z,15.20
2022-09-14T15:56:49.973Z,15.20
2022-09-14T15:59:18.787Z,15.30
2022-09-14T16:01:46.849Z,15.40
2022-09-14T16:04:14.483Z,15.50
2022-09-14T16:06:41.937Z,15.50
2022-09-14T16:09:11.023Z,15.40
2022-09-14T16:11:39.363Z,15.30
2022-09-14T16:14:08.469Z,15.40
2022-09-14T16:16:36.954Z,15.30
2022-09-14T16:19:08.722Z,15.30
2022-09-14T16:21:36.295Z,15.10
2022-09-14T16:24:06.114Z,14.90
2022-09-14T16:26:35.287Z,14.70
2022-09-14T16:29:03.087Z,14.30
2022-09-14T16:31:33.151Z,14.10
2022-09-14T16:34:10.682Z,14.00
2022-09-14T16:36:39.529Z,14.00
2022-09-14T16:39:10.647Z,13.90
2022-09-14T16:41:40.606Z,13.90
2022-09-14T16:44:10.215Z,13.90
2022-09-14T16:46:38.080Z,13.90
2022-09-14T16:49:06.393Z,13.90
2022-09-14T16:51:34.161Z,13.90
2022-09-14T16:54:01.666Z,13.90
2022-09-14T16:56:34.107Z,13.80
2022-09-14T16:59:02.161Z,13.80
2022-09-14T17:01:32.220Z,13.80
2022-09-14T17:04:08.308Z,13.70
2022-09-14T17:06:37.479Z,13.60
2022-09-14T17:09:10.441Z,13.60
2022-09-14T17:11:39.607Z,13.60
2022-09-14T17:14:06.915Z,13.60
2022-09-14T17:16:34.672Z,13.50
2022-09-14T17:19:03.982Z,13.50
2022-09-14T17:21:34.731Z,13.40
2022-09-14T17:24:02.294Z,13.40
2022-09-14T17:26:29.876Z,13.40
2022-09-14T17:28:58.875Z,13.40
2022-09-14T17:31:29.248Z,13.40
2022-09-14T17:33:58.737Z,13.40
2022-09-14T17:36:26.399Z,13.40
2022-09-14T17:38:56.665Z,13.40
2022-09-14T17:41:26.375Z,13.40
2022-09-14T17:44:02.268Z,13.40
2022-09-14T17:46:30.591Z,13.30
2022-09-14T17:48:59.547Z,13.10
2022-09-14T17:51:30.132Z,13.00
2022-09-14T17:53:59.159Z,13.00
2022-09-14T17:56:27.768Z,12.90
2022-09-14T17:59:01.654Z,12.90
2022-09-14T18:01:30.989Z,12.90
2022-09-14T18:04:00.809Z,12.80
2022-09-14T18:06:31.145Z,12.70
2022-09-14T18:09:03.433Z,12.70
2022-09-14T18:11:31.791Z,12.60
2022-09-14T18:13:59.670Z,12.60
2022-09-14T18:16:27.956Z,12.60
2022-09-14T18:18:57.873Z,12.50
2022-09-14T18:21:26.445Z,12.50
2022-09-14T18:23:54.740Z,12.50
2022-09-14T18:26:23.540Z,12.50
2022-09-14T18:28:53.667Z,12.40
2022-09-14T18:31:20.878Z,12.40
2022-09-14T18:33:53.146Z,12.30
2022-09-14T18:36:21.300Z,12.30
2022-09-14T18:38:48.844Z,12.30
2022-09-14T18:41:17.835Z,12.30
2022-09-14T18:43:47.097Z,12.20
2022-09-14T18:46:15.623Z,12.20
2022-09-14T18:48:46.063Z,12.20
2022-09-14T18:51:14.549Z,12.20
2022-09-14T18:53:42.357Z,12.10
2022-09-14T18:56:11.755Z,12.20
2022-09-14T18:58:41.695Z,12.10
2022-09-14T19:01:10.124Z,12.20
2022-09-14T19:03:38.767Z,12.20
2022-09-14T19:06:12.643Z,12.20
2022-09-14T19:08:40.111Z,12.10
2022-09-14T19:11:17.374Z,12.20
2022-09-14T19:13:46.084Z,12.20
2022-09-14T19:16:16.639Z,12.10
2022-09-14T19:18:45.484Z,12.10
2022-09-14T19:21:23.704Z,12.10
2022-09-14T19:24:00.849Z,12.10
2022-09-14T19:26:31.054Z,12.10
2022-09-14T19:29:00.760Z,12.10
2022-09-14T19:31:30.865Z,12.10
2022-09-14T19:34:00.364Z,12.10
2022-09-14T19:36:28.326Z,12.10
2022-09-14T19:38:58.709Z,12.20
2022-09-14T19:41:26.351Z,12.20
2022-09-14T19:43:54.140Z,12.20
2022-09-14T19:46:25.757Z,12.20
2022-09-14T19:48:53.737Z,12.20
2022-09-14T19:51:29.105Z,12.20
2022-09-14T19:53:59.623Z,12.30
2022-09-14T19:56:30.384Z,12.20
2022-09-14T19:59:01.620Z,12.20
2022-09-14T20:01:31.570Z,12.10
2022-09-14T20:03:58.949Z,11.90
2022-09-14T20:06:31.817Z,11.80
2022-09-14T20:09:01.853Z,11.80
2022-09-14T20:11:32.018Z,11.70
2022-09-14T20:14:01.367Z,11.70
2022-09-14T20:16:34.213Z,11.70
2022-09-14T20:19:09.191Z,11.70
2022-09-14T20:21:37.645Z,11.70
2022-09-14T20:24:22.187Z,11.70
2022-09-14T20:26:50.562Z,11.70
2022-09-14T20:29:19.801Z,11.70
2022-09-14T20:31:48.078Z,11.70
2022-09-14T20:34:20.627Z,11.70
2022-09-14T20:36:52.326Z,11.70
2022-09-14T20:39:22.133Z,11.60
2022-09-14T20:41:49.655Z,11.60
2022-09-14T20:44:22.134Z,11.60
2022-09-14T20:46:50.595Z,11.50
2022-09-14T20:49:21.139Z,11.50
2022-09-14T20:51:48.458Z,11.50
2022-09-14T20:54:17.471Z,11.50
2022-09-14T20:56:46.302Z,11.50
2022-09-14T20:59:18.128Z,11.50
2022-09-14T21:01:47.599Z,11.50
2022-09-14T21:04:19.648Z,11.50
2022-09-14T21:06:49.927Z,11.50
2022-09-14T21:09:20.823Z,11.50
2022-09-14T21:11:48.310Z,11.50
2022-09-14T21:14:17.479Z,11.50
2022-09-14T21:16:47.231Z,11.50
2022-09-14T21:19:19.727Z,11.40
2022-09-14T21:21:47.983Z,11.50
2022-09-14T21:24:16.289Z,11.50
2022-09-14T21:26:44.286Z,11.50
2022-09-14T21:29:18.289Z,11.60
2022-09-14T21:31:45.581Z,11.60
2022-09-14T21:34:12.868Z,11.60
2022-09-14T21:36:42.482Z,11.60
2022-09-14T21:39:12.908Z,11.60
2022-09-14T21:41:41.745Z,11.60
2022-09-14T21:44:09.381Z,11.60
2022-09-14T21:46:37.431Z,11.60
2022-09-14T21:49:05.008Z,11.60
2022-09-14T21:51:35.085Z,11.60
2022-09-14T21:54:13.280Z,11.60
2022-09-14T21:56:42.805Z,11.60
2022-09-14T21:59:16.203Z,11.60
2022-09-14T22:01:43.941Z,11.50
2022-09-14T22:04:16.602Z,11.50
2022-09-14T22:06:45.757Z,11.40
2022-09-14T22:09:19.362Z,11.40
2022-09-14T22:11:47.401Z,11.30
2022-09-14T22:14:20.219Z,11.30
2022-09-14T22:16:48.979Z,11.30
2022-09-14T22:19:28.262Z,11.30
2022-09-14T22:21:56.724Z,11.20
2022-09-14T22:24:38.096Z,11.20
2022-09-14T22:27:07.960Z,11.20
2022-09-14T22:29:35.161Z,11.20
2022-09-14T22:32:02.676Z,11.10
2022-09-14T22:34:29.782Z,11.10
2022-09-14T22:36:56.994Z,11.00
2022-09-14T22:39:24.239Z,11.10
2022-09-14T22:41:51.347Z,11.00
2022-09-14T22:44:18.534Z,11.00
2022-09-14T22:46:46.176Z,11.00
2022-09-14T22:49:13.302Z,11.00
2022-09-14T22:51:40.618Z,10.90
2022-09-14T22:54:08.414Z,10.90
2022-09-14T22:56:38.288Z,10.90
2022-09-14T22:59:08.541Z,10.90
2022-09-14T23:01:40.410Z,10.90
2022-09-14T23:04:13.896Z,10.90
2022-09-14T23:06:47.387Z,10.80
2022-09-14T23:09:20.269Z,10.80
2022-09-14T23:11:48.350Z,10.80
2022-09-14T23:14:16.568Z,10.80
2022-09-14T23:16:47.444Z,10.80
2022-09-14T23:19:16.994Z,10.80
2022-09-14T23:21:45.357Z,10.90
2022-09-14T23:24:13.921Z,10.90
2022-09-14T23:26:41.392Z,10.90
2022-09-14T23:29:14.454Z,11.00
2022-09-14T23:31:41.612Z,11.00
2022-09-14T23:34:35.645Z,11.00
2022-09-14T23:37:03.129Z,11.10
2022-09-14T23:39:30.266Z,11.10
2022-09-14T23:41:57.609Z,11.10
2022-09-14T23:44:25.156Z,11.10
2022-09-14T23:46:52.658Z,11.10
2022-09-14T23:49:19.825Z,11.10
2022-09-14T23:51:46.977Z,11.00
2022-09-14T23:54:14.080Z,11.00
2022-09-14T23:56:41.338Z,10.90
2022-09-14T23:59:12.128Z,10.90
